Time;durP1;ratioP1;P1;durP2;ratioP2;P2;SDS_P1;SDS_P2;PMS_P1;PMS_P2;Temp;Humidity;BMP_temperature;BMP_pressure;BME280_temperature;BME280_humidity;BME280_pressure;Samples;Min_cycle;Max_cycle;Signal;HPM_P1;HPM_P2
2022/05/22 00:02:25;;;;;;;6.80;1.98;;;21.30;42.30;;;;;;5090476;28;20571;-72
2022/05/22 00:04:51;;;;;;;4.72;1.80;;;21.40;42.60;;;;;;5084590;28;20028;-72
2022/05/22 00:07:17;;;;;;;3.25;2.05;;;21.40;42.60;;;;;;5087280;28;20066;-71
2022/05/22 00:09:42;;;;;;;3.95;1.60;;;21.40;42.80;;;;;;5090981;28;20030;-73
2022/05/22 00:12:09;;;;;;;6.50;1.70;;;21.30;42.80;;;;;;5089753;28;20024;-73
2022/05/22 00:14:36;;;;;;;4.28;1.70;;;21.30;42.80;;;;;;5090594;28;20027;-72
2022/05/22 00:17:03;;;;;;;4.68;1.70;;;21.30;42.90;;;;;;5090955;28;20572;-74
2022/05/22 00:19:31;;;;;;;4.80;1.85;;;21.30;43.00;;;;;;5085576;28;20032;-72
2022/05/22 00:21:58;;;;;;;5.63;1.73;;;21.30;43.10;;;;;;5084541;28;20321;-72
2022/05/22 00:24:26;;;;;;;6.97;1.95;;;21.30;43.10;;;;;;5065546;28;20028;-70
2022/05/22 00:26:52;;;;;;;2.28;1.60;;;21.40;43.10;;;;;;5064451;28;20115;-73
2022/05/22 00:29:19;;;;;;;5.50;1.70;;;21.30;43.10;;;;;;5086711;28;20032;-71
2022/05/22 00:31:45;;;;;;;2.72;1.67;;;21.30;43.10;;;;;;5083902;28;20044;-64
2022/05/22 00:34:11;;;;;;;4.22;1.92;;;21.40;43.20;;;;;;5082551;28;20024;-71
2022/05/22 00:36:37;;;;;;;4.05;1.77;;;21.40;43.00;;;;;;5081314;28;20017;-73
2022/05/22 00:39:04;;;;;;;2.88;1.70;;;21.40;42.90;;;;;;5060459;28;20035;-68
2022/05/22 00:41:31;;;;;;;5.57;2.03;;;21.40;42.80;;;;;;5080205;28;20130;-71
2022/05/22 00:43:59;;;;;;;5.53;2.00;;;21.40;42.60;;;;;;5079219;28;20099;-72
2022/05/22 00:46:27;;;;;;;4.90;1.70;;;21.40;42.70;;;;;;5073956;28;20047;-66
2022/05/22 00:49:00;;;;;;;3.15;1.77;;;21.40;42.70;;;;;;5048477;28;20032;-71
2022/05/22 00:51:41;;;;;;;7.60;1.80;;;21.40;42.80;;;;;;5077511;28;20129;-72
2022/05/22 00:54:07;;;;;;;5.00;2.00;;;21.40;42.80;;;;;;5085711;28;20598;-73
2022/05/22 00:56:38;;;;;;;3.47;1.70;;;21.30;42.80;;;;;;5088354;28;20025;-69
2022/05/22 00:59:25;;;;;;;3.88;1.75;;;21.30;43.00;;;;;;5082570;28;20040;-72
2022/05/22 01:01:53;;;;;;;2.70;1.65;;;21.20;43.20;;;;;;5084604;28;20025;-73
2022/05/22 01:04:23;;;;;;;6.65;2.10;;;21.20;43.40;;;;;;5078402;28;20496;-73
2022/05/22 01:06:51;;;;;;;4.30;1.80;;;21.10;43.50;;;;;;5084846;28;20354;-64
2022/05/22 01:09:17;;;;;;;3.30;1.63;;;21.10;43.60;;;;;;5090810;28;20024;-72
2022/05/22 01:11:44;;;;;;;4.85;1.70;;;21.10;43.90;;;;;;5088945;28;20103;-72
2022/05/22 01:14:18;;;;;;;5.07;1.70;;;21.00;43.80;;;;;;5084849;28;20099;-73
2022/05/22 01:16:44;;;;;;;7.25;1.85;;;21.00;44.10;;;;;;5085021;28;20031;-72
2022/05/22 01:19:12;;;;;;;4.90;1.92;;;20.90;44.00;;;;;;5083217;28;20024;-71
2022/05/22 01:21:40;;;;;;;3.10;1.60;;;20.90;44.10;;;;;;5086132;28;20054;-72
2022/05/22 01:24:06;;;;;;;5.30;1.90;;;20.90;44.10;;;;;;5051217;28;20024;-73
2022/05/22 01:26:33;;;;;;;11.00;2.10;;;20.80;44.20;;;;;;5088514;28;20024;-72
2022/05/22 01:28:59;;;;;;;3.67;1.70;;;20.70;44.20;;;;;;5087331;28;20110;-68
2022/05/22 01:31:25;;;;;;;2.97;1.77;;;20.80;44.30;;;;;;5085831;28;20029;-70
2022/05/22 01:33:51;;;;;;;3.50;1.90;;;20.70;44.50;;;;;;5069692;28;20036;-67
2022/05/22 01:36:17;;;;;;;3.47;1.90;;;20.60;44.70;;;;;;5079984;28;20096;-72
2022/05/22 01:38:44;;;;;;;4.80;1.90;;;20.60;44.60;;;;;;5089453;28;20477;-73
2022/05/22 01:41:10;;;;;;;4.45;1.73;;;20.60;44.70;;;;;;5083803;28;20366;-72
2022/05/22 01:43:36;;;;;;;6.72;2.10;;;20.60;44.80;;;;;;5077238;28;20402;-74
2022/05/22 01:46:02;;;;;;;5.05;2.10;;;20.50;44.70;;;;;;5067718;28;20028;-71
2022/05/22 01:48:28;;;;;;;5.55;1.90;;;20.50;44.70;;;;;;5064896;28;20043;-72
2022/05/22 01:50:54;;;;;;;3.85;1.80;;;20.50;44.90;;;;;;5069239;28;20025;-73
2022/05/22 01:53:21;;;;;;;3.35;1.80;;;20.50;44.90;;;;;;5062353;28;20024;-73
2022/05/22 01:55:50;;;;;;;4.80;1.90;;;20.40;45.00;;;;;;5066771;28;20021;-64
2022/05/22 01:58:16;;;;;;;4.00;1.88;;;20.40;45.10;;;;;;5065563;28;20565;-73
2022/05/22 02:00:42;;;;;;;6.70;2.22;;;20.40;45.10;;;;;;5064958;28;20046;-73
2022/05/22 02:03:08;;;;;;;3.03;1.80;;;20.40;45.20;;;;;;5069210;28;20020;-73
2022/05/22 02:05:35;;;;;;;6.05;2.10;;;20.40;45.30;;;;;;5069463;28;20032;-65
2022/05/22 02:08:19;;;;;;;8.27;2.10;;;20.30;45.30;;;;;;5066227;28;20130;-73
2022/05/22 02:10:47;;;;;;;4.78;2.08;;;20.30;45.40;;;;;;5050606;28;20028;-71
2022/05/22 02:13:16;;;;;;;9.70;2.15;;;20.30;45.40;;;;;;5066184;28;20107;-72
2022/05/22 02:15:44;;;;;;;4.90;1.88;;;20.20;45.60;;;;;;5073552;28;20382;-73
2022/05/22 02:18:09;;;;;;;5.10;2.10;;;20.20;45.60;;;;;;5060471;28;20025;-72
2022/05/22 02:20:35;;;;;;;4.70;1.75;;;20.20;45.70;;;;;;5063398;28;20031;-73
2022/05/22 02:23:01;;;;;;;6.20;1.73;;;20.20;45.80;;;;;;5068542;28;20466;-73
2022/05/22 02:25:32;;;;;;;6.65;2.13;;;20.10;45.70;;;;;;5073367;28;20183;-74
2022/05/22 02:27:58;;;;;;;3.58;1.77;;;20.20;45.80;;;;;;5072535;28;20040;-73
2022/05/22 02:30:27;;;;;;;3.03;1.65;;;20.20;45.80;;;;;;5064353;28;20128;-70
2022/05/22 02:32:52;;;;;;;4.30;1.83;;;20.20;45.90;;;;;;5068187;28;20020;-72
2022/05/22 02:35:19;;;;;;;6.43;2.20;;;20.20;45.90;;;;;;5058400;28;20052;-73
2022/05/22 02:37:47;;;;;;;2.85;1.80;;;20.20;45.90;;;;;;5043594;28;20400;-73
2022/05/22 02:40:15;;;;;;;3.47;1.80;;;20.20;45.90;;;;;;5064796;28;20021;-74
2022/05/22 02:42:41;;;;;;;3.72;1.80;;;20.20;45.90;;;;;;5072607;28;20059;-72
2022/05/22 02:45:09;;;;;;;5.53;2.05;;;20.20;46.10;;;;;;5077898;28;20204;-74
2022/05/22 02:47:35;;;;;;;3.70;1.90;;;20.30;46.00;;;;;;5090909;28;20030;-70
2022/05/22 02:50:02;;;;;;;3.58;1.75;;;20.30;45.80;;;;;;5082518;28;20103;-69
2022/05/22 02:52:27;;;;;;;3.85;1.95;;;20.30;45.80;;;;;;5082790;28;20024;-71
2022/05/22 02:54:53;;;;;;;4.82;1.98;;;20.30;45.70;;;;;;5085173;28;20077;-73
2022/05/22 02:57:22;;;;;;;3.42;1.80;;;20.30;45.80;;;;;;5092727;28;20031;-71
2022/05/22 02:59:52;;;;;;;5.07;1.85;;;20.30;45.80;;;;;;5086927;28;20020;-65
2022/05/22 03:02:19;;;;;;;8.68;1.88;;;20.30;45.70;;;;;;5082635;28;20083;-71
2022/05/22 03:04:47;;;;;;;4.07;2.03;;;20.30;45.80;;;;;;5072361;28;20032;-72
2022/05/22 03:07:15;;;;;;;10.43;2.13;;;20.30;45.80;;;;;;5093095;28;20020;-74
2022/05/22 03:09:42;;;;;;;4.78;1.80;;;20.30;46.00;;;;;;5092607;28;20484;-72
2022/05/22 03:12:10;;;;;;;4.00;1.75;;;20.30;45.90;;;;;;5087517;28;20597;-73
2022/05/22 03:14:36;;;;;;;3.67;2.13;;;20.30;46.00;;;;;;5091969;28;20032;-73
2022/05/22 03:17:02;;;;;;;4.30;1.80;;;20.20;46.10;;;;;;5091110;28;20019;-73
2022/05/22 03:19:27;;;;;;;5.85;2.15;;;20.10;46.10;;;;;;5087776;28;20128;-73
2022/05/22 03:21:53;;;;;;;5.60;2.05;;;20.10;46.30;;;;;;5083394;28;20515;-71
2022/05/22 03:24:19;;;;;;;4.10;1.70;;;20.10;46.40;;;;;;5083003;28;20032;-73
2022/05/22 03:26:45;;;;;;;7.40;1.92;;;20.00;46.40;;;;;;5090297;28;20035;-71
2022/05/22 03:29:29;;;;;;;5.90;2.08;;;20.00;47.30;;;;;;5086056;28;20027;-70
2022/05/22 03:31:55;;;;;;;4.93;2.00;;;19.90;46.90;;;;;;5086593;28;20032;-72
2022/05/22 03:34:21;;;;;;;3.67;1.73;;;19.90;46.90;;;;;;5083728;28;20388;-71
2022/05/22 03:36:46;;;;;;;3.28;1.80;;;19.90;47.00;;;;;;5087049;28;20035;-72
2022/05/22 03:39:12;;;;;;;4.97;2.00;;;19.90;46.90;;;;;;5090547;28;20032;-73
2022/05/22 03:41:39;;;;;;;4.95;1.70;;;19.90;46.80;;;;;;5092518;28;20028;-73
2022/05/22 03:44:05;;;;;;;4.82;1.83;;;19.90;46.80;;;;;;5085426;28;20041;-73
2022/05/22 03:46:32;;;;;;;7.13;2.10;;;19.90;46.80;;;;;;5086027;28;20054;-71
2022/05/22 03:48:58;;;;;;;4.95;1.88;;;19.90;46.70;;;;;;5085716;28;20025;-72
2022/05/22 03:51:25;;;;;;;3.40;2.00;;;19.90;46.70;;;;;;5084352;28;20073;-72
2022/05/22 03:53:51;;;;;;;4.97;2.20;;;20.00;46.50;;;;;;5088955;28;20043;-64
2022/05/22 03:56:18;;;;;;;3.50;1.88;;;20.10;46.30;;;;;;5084095;28;20032;-73
2022/05/22 03:58:45;;;;;;;4.10;1.95;;;20.10;46.20;;;;;;5088937;28;20027;-69
2022/05/22 04:01:11;;;;;;;7.25;2.22;;;20.20;45.90;;;;;;5072368;28;20496;-65
2022/05/22 04:03:38;;;;;;;3.20;2.00;;;20.20;45.90;;;;;;5090012;28;20028;-70
2022/05/22 04:06:07;;;;;;;5.47;2.17;;;20.20;45.80;;;;;;5087518;28;20028;-72
2022/05/22 04:08:34;;;;;;;4.47;2.17;;;20.10;45.70;;;;;;5067754;28;20032;-72
2022/05/22 04:11:08;;;;;;;5.20;2.08;;;20.10;45.90;;;;;;5066487;28;20028;-70
2022/05/22 04:13:34;;;;;;;5.40;1.95;;;20.10;45.80;;;;;;5089809;28;20114;-72
2022/05/22 04:16:00;;;;;;;3.50;2.05;;;20.10;45.80;;;;;;5066499;28;20028;-72
2022/05/22 04:18:25;;;;;;;6.68;2.10;;;20.10;45.70;;;;;;5083714;28;20020;-72
2022/05/22 04:20:52;;;;;;;4.28;2.30;;;20.20;45.50;;;;;;5077633;28;20496;-64
2022/05/22 04:26:02;;;;;;;8.93;2.38;;;20.30;45.60;;;;;;5077704;28;20067;-68
2022/05/22 04:28:30;;;;;;;4.68;2.10;;;20.40;44.80;;;;;;5079682;28;20492;-71
2022/05/22 04:30:56;;;;;;;10.43;2.90;;;20.30;44.60;;;;;;5079849;28;20032;-70
2022/05/22 04:33:22;;;;;;;3.88;2.13;;;20.30;44.60;;;;;;5064894;28;20028;-73
2022/05/22 04:35:49;;;;;;;5.50;2.25;;;20.40;44.60;;;;;;5084275;28;20396;-72
2022/05/22 04:38:15;;;;;;;4.15;2.20;;;20.40;44.50;;;;;;5082368;28;20064;-70
2022/05/22 04:40:41;;;;;;;4.63;2.38;;;20.40;44.50;;;;;;5080596;28;20035;-71
2022/05/22 04:43:09;;;;;;;4.93;1.98;;;20.40;44.50;;;;;;5080760;28;20020;-65
2022/05/22 04:45:38;;;;;;;4.97;2.10;;;20.40;44.80;;;;;;5058167;28;20048;-68
2022/05/22 04:48:04;;;;;;;5.82;2.10;;;20.50;44.60;;;;;;5074617;28;20032;-68
2022/05/22 04:50:30;;;;;;;5.00;2.25;;;20.50;44.70;;;;;;5078543;28;20036;-67
2022/05/22 04:52:56;;;;;;;3.40;1.98;;;20.50;45.20;;;;;;5078894;28;20787;-67
2022/05/22 04:55:22;;;;;;;5.97;2.00;;;20.50;44.70;;;;;;5078913;28;20722;-63
2022/05/22 04:57:47;;;;;;;5.90;2.58;;;20.60;44.60;;;;;;5078287;28;20036;-66
2022/05/22 05:00:14;;;;;;;6.88;2.30;;;20.50;44.70;;;;;;5082523;28;20020;-67
2022/05/22 05:02:40;;;;;;;8.55;2.58;;;20.60;44.50;;;;;;5064547;28;20035;-69
2022/05/22 05:05:08;;;;;;;6.25;2.40;;;20.70;44.30;;;;;;5079534;28;20032;-68
2022/05/22 05:07:37;;;;;;;6.85;2.38;;;20.90;43.90;;;;;;5076077;28;20048;-69
2022/05/22 05:10:04;;;;;;;6.93;2.15;;;21.10;43.60;;;;;;5077080;28;20031;-67
2022/05/22 05:12:29;;;;;;;7.03;2.60;;;21.40;42.60;;;;;;5084434;28;20115;-69
2022/05/22 05:14:55;;;;;;;6.30;2.50;;;21.70;42.20;;;;;;5057951;28;20529;-67
2022/05/22 05:17:21;;;;;;;6.53;2.22;;;21.90;41.50;;;;;;5088095;28;20047;-66
2022/05/22 05:19:46;;;;;;;6.97;2.67;;;22.20;40.80;;;;;;5088665;28;20023;-68
2022/05/22 05:22:12;;;;;;;5.20;2.70;;;22.50;40.50;;;;;;5086200;28;20072;-67
2022/05/22 05:24:39;;;;;;;6.45;2.67;;;22.70;40.00;;;;;;5083163;28;20027;-67
2022/05/22 05:27:05;;;;;;;7.95;2.40;;;22.80;39.60;;;;;;5079928;28;20024;-64
2022/05/22 05:29:31;;;;;;;7.43;2.33;;;22.90;39.40;;;;;;5054375;28;20060;-65
2022/05/22 05:31:56;;;;;;;7.10;2.30;;;22.90;39.10;;;;;;5082648;28;20051;-68
2022/05/22 05:34:22;;;;;;;4.43;2.20;;;22.90;39.30;;;;;;5080114;28;20048;-64
2022/05/22 05:36:49;;;;;;;5.28;2.38;;;23.00;39.00;;;;;;5082287;28;20021;-68
2022/05/22 05:39:14;;;;;;;5.18;2.30;;;23.00;39.60;;;;;;5083376;28;20303;-68
2022/05/22 05:44:24;;;;;;;7.57;2.30;;;23.10;38.90;;;;;;5077572;28;20059;-70
2022/05/22 05:46:50;;;;;;;7.57;2.65;;;23.00;39.10;;;;;;5080804;28;20032;-64
2022/05/22 05:49:16;;;;;;;7.43;2.50;;;23.10;39.10;;;;;;5083246;28;20047;-66
2022/05/22 05:51:41;;;;;;;6.50;2.58;;;23.10;39.00;;;;;;5086243;28;20024;-69
2022/05/22 05:54:07;;;;;;;6.40;2.53;;;23.00;39.00;;;;;;5081337;28;20043;-68
2022/05/22 05:56:38;;;;;;;5.78;2.60;;;22.90;39.30;;;;;;5067238;28;20028;-68
2022/05/22 05:59:04;;;;;;;7.50;2.80;;;22.80;39.50;;;;;;5081429;28;20436;-68
2022/05/22 06:01:30;;;;;;;7.70;2.42;;;22.80;39.60;;;;;;5061380;28;20362;-68
2022/05/22 06:03:56;;;;;;;6.95;3.05;;;22.90;39.50;;;;;;5077535;28;20039;-69
2022/05/22 06:06:22;;;;;;;7.65;2.83;;;22.90;39.50;;;;;;5063483;28;20089;-65
2022/05/22 06:08:47;;;;;;;3.97;2.10;;;22.90;39.50;;;;;;5084299;28;20121;-68
2022/05/22 06:11:13;;;;;;;6.80;3.10;;;22.90;39.60;;;;;;5085553;28;20034;-67
2022/05/22 06:13:42;;;;;;;8.02;2.85;;;22.90;39.70;;;;;;5066784;28;20108;-68
2022/05/22 06:16:08;;;;;;;8.80;3.10;;;23.10;39.60;;;;;;5086018;28;20443;-68
2022/05/22 06:18:53;;;;;;;7.93;3.05;;;23.10;39.30;;;;;;5079140;28;20063;-68
2022/05/22 06:21:21;;;;;;;6.55;2.97;;;23.20;39.20;;;;;;5085355;28;20027;-68
2022/05/22 06:23:47;;;;;;;9.43;2.95;;;23.20;38.90;;;;;;5084448;28;20134;-68
2022/05/22 06:26:15;;;;;;;7.32;3.00;;;23.30;38.80;;;;;;5074448;28;20161;-65
2022/05/22 06:28:41;;;;;;;5.53;2.63;;;23.30;38.80;;;;;;5059368;28;20020;-66
2022/05/22 06:31:07;;;;;;;6.05;2.80;;;23.30;38.80;;;;;;5080412;28;20146;-65
2022/05/22 06:33:34;;;;;;;7.43;2.90;;;23.50;38.60;;;;;;5085784;28;20043;-69
2022/05/22 06:36:00;;;;;;;6.35;2.47;;;23.50;38.50;;;;;;5065482;28;20380;-68
2022/05/22 06:41:11;;;;;;;6.00;2.60;;;23.60;37.90;;;;;;5084426;28;20075;-68
2022/05/22 06:43:37;;;;;;;7.50;2.53;;;23.70;37.90;;;;;;5082791;28;20067;-68
2022/05/22 06:46:04;;;;;;;6.00;2.65;;;23.80;37.70;;;;;;5080334;28;20200;-63
2022/05/22 06:48:30;;;;;;;8.43;2.70;;;24.10;37.40;;;;;;5073540;28;20032;-66
2022/05/22 06:50:56;;;;;;;9.38;2.80;;;24.40;37.20;;;;;;5086084;28;20439;-69
2022/05/22 06:53:22;;;;;;;6.63;2.75;;;24.70;36.60;;;;;;5075057;28;20036;-68
2022/05/22 06:55:48;;;;;;;5.07;2.38;;;24.90;36.40;;;;;;5085198;28;20044;-67
2022/05/22 06:58:15;;;;;;;6.85;3.00;;;25.00;36.20;;;;;;5088375;28;20381;-65
2022/05/22 07:00:41;;;;;;;6.10;2.50;;;25.00;36.10;;;;;;5083544;28;20033;-68
2022/05/22 07:03:07;;;;;;;9.88;2.65;;;25.30;36.00;;;;;;5073298;28;20029;-67
2022/05/22 07:05:33;;;;;;;9.00;3.03;;;25.30;35.60;;;;;;5071193;28;20028;-68
2022/05/22 07:07:58;;;;;;;5.18;3.25;;;25.80;35.40;;;;;;5072206;28;20618;-66
2022/05/22 07:13:09;;;;;;;9.88;2.78;;;28.30;32.60;;;;;;5086809;28;20035;-70
2022/05/22 07:15:35;;;;;;;9.32;2.67;;;28.80;31.90;;;;;;5073036;28;20123;-69
2022/05/22 07:18:01;;;;;;;5.47;2.40;;;28.80;31.30;;;;;;5072997;28;20027;-69
2022/05/22 07:20:26;;;;;;;6.50;2.75;;;28.60;31.20;;;;;;5071947;28;20036;-69
2022/05/22 07:22:52;;;;;;;6.75;2.97;;;29.00;31.10;;;;;;5088945;28;20036;-70
2022/05/22 07:25:18;;;;;;;6.00;3.10;;;29.60;30.70;;;;;;5089126;28;20481;-68
2022/05/22 07:27:43;;;;;;;5.28;2.38;;;31.30;29.70;;;;;;5057671;28;20504;-63
2022/05/22 07:30:10;;;;;;;7.03;2.85;;;32.60;28.10;;;;;;5088477;28;20034;-71
2022/05/22 07:32:36;;;;;;;6.63;2.85;;;33.50;27.50;;;;;;5081172;28;20043;-71
2022/05/22 07:35:01;;;;;;;5.95;2.47;;;34.60;26.70;;;;;;5080123;28;20028;-71
2022/05/22 07:37:27;;;;;;;6.10;3.10;;;35.10;26.30;;;;;;5089988;28;20500;-72
2022/05/22 07:39:52;;;;;;;9.20;2.78;;;35.60;26.70;;;;;;5088412;28;20085;-69
2022/05/22 07:42:18;;;;;;;6.20;2.90;;;36.00;25.60;;;;;;5086980;28;20044;-71
2022/05/22 07:44:44;;;;;;;5.65;2.90;;;36.00;25.70;;;;;;5071596;28;20106;-62
2022/05/22 07:47:10;;;;;;;6.68;2.65;;;35.80;25.50;;;;;;5068303;28;22895;-70
2022/05/22 07:52:20;;;;;;;8.02;2.90;;;35.10;26.10;;;;;;5080906;28;20105;-67
2022/05/22 07:54:46;;;;;;;7.32;3.67;;;34.60;25.90;;;;;;5088948;28;20027;-64
2022/05/22 07:57:12;;;;;;;7.75;2.83;;;34.30;26.30;;;;;;5083225;28;20020;-71
2022/05/22 07:59:39;;;;;;;5.75;2.75;;;35.30;25.90;;;;;;5085612;28;20103;-71
2022/05/22 08:02:08;;;;;;;6.88;3.63;;;36.60;25.20;;;;;;5068336;28;20338;-67
2022/05/22 08:04:34;;;;;;;4.57;2.53;;;38.70;24.40;;;;;;5087314;28;20042;-71
2022/05/22 08:07:01;;;;;;;5.65;2.97;;;40.40;23.20;;;;;;5075765;28;20092;-72
2022/05/22 08:09:26;;;;;;;6.03;3.20;;;39.90;23.20;;;;;;5065871;28;20161;-70
2022/05/22 08:11:52;;;;;;;6.75;3.53;;;39.70;23.50;;;;;;5074806;28;20078;-71
2022/05/22 08:14:18;;;;;;;6.13;2.83;;;41.10;22.60;;;;;;5055920;28;20404;-66
2022/05/22 08:16:44;;;;;;;5.88;3.10;;;40.70;22.70;;;;;;5081295;28;20016;-64
2022/05/22 08:19:10;;;;;;;6.82;3.80;;;40.30;22.60;;;;;;5081205;28;20043;-74
2022/05/22 08:21:36;;;;;;;5.85;3.45;;;40.50;22.70;;;;;;5088446;28;20036;-71
2022/05/22 08:24:01;;;;;;;4.90;2.88;;;41.70;22.00;;;;;;5086207;28;20089;-71
2022/05/22 08:26:27;;;;;;;6.80;3.35;;;42.60;21.70;;;;;;5087316;28;20036;-70
2022/05/22 08:28:54;;;;;;;5.10;2.95;;;43.60;21.60;;;;;;5087589;28;20040;-73
2022/05/22 08:31:20;;;;;;;6.78;3.40;;;44.50;21.20;;;;;;5070351;28;20099;-69
2022/05/22 08:33:46;;;;;;;11.00;3.70;;;44.60;20.80;;;;;;5088948;28;20038;-65
2022/05/22 08:36:12;;;;;;;5.72;2.60;;;45.00;20.70;;;;;;5089707;28;20055;-69
2022/05/22 08:38:37;;;;;;;5.20;2.65;;;45.10;20.40;;;;;;5088528;28;20076;-68
2022/05/22 08:41:09;;;;;;;4.85;2.28;;;43.20;20.80;;;;;;5089189;28;20024;-68
2022/05/22 08:43:56;;;;;;;5.13;2.42;;;41.00;21.30;;;;;;5083716;28;20519;-68
2022/05/22 08:46:36;;;;;;;4.25;2.85;;;40.00;22.00;;;;;;5083101;28;20494;-72
2022/05/22 08:49:21;;;;;;;5.50;3.15;;;39.70;22.20;;;;;;5065297;28;20036;-71
2022/05/22 08:51:55;;;;;;;7.88;3.53;;;40.60;22.60;;;;;;5078536;28;20051;-62
2022/05/22 08:54:24;;;;;;;5.18;2.83;;;42.80;21.90;;;;;;5081586;28;20036;-71
2022/05/22 08:59:39;;;;;;;5.97;3.17;;;45.20;20.60;;;;;;5083630;28;20047;-72
2022/05/22 09:02:30;;;;;;;5.68;3.85;;;45.80;20.20;;;;;;5081165;28;20107;-69
2022/05/22 09:05:07;;;;;;;6.57;2.55;;;46.10;20.10;;;;;;5077961;28;20040;-71
2022/05/22 09:07:36;;;;;;;6.57;2.78;;;46.20;19.80;;;;;;5088028;28;20020;-69
2022/05/22 09:10:13;;;;;;;5.25;2.30;;;45.60;19.90;;;;;;5087729;28;20037;-71
2022/05/22 09:13:18;;;;;;;5.45;2.40;;;45.30;19.90;;;;;;5059621;28;20024;-69
2022/05/22 09:16:11;;;;;;;6.15;2.28;;;43.70;20.20;;;;;;5079007;28;20024;-66
2022/05/22 09:18:46;;;;;;;;;;;40.50;21.40;;;;;;5083883;28;20135;-71
2022/05/22 09:21:30;;;;;;;5.00;2.53;;;37.70;22.40;;;;;;5081512;28;19908;-66
2022/05/22 09:24:02;;;;;;;6.70;2.17;;;35.50;24.00;;;;;;5079761;28;20028;-73
2022/05/22 09:26:57;;;;;;;4.93;2.00;;;33.70;25.20;;;;;;5079522;28;20027;-73
2022/05/22 09:30:17;;;;;;;5.15;2.13;;;32.40;26.20;;;;;;5083724;28;20031;-71
2022/05/22 09:32:57;;;;;;;7.20;2.13;;;31.30;26.90;;;;;;4991893;28;20647;-74
2022/05/22 09:35:57;;;;;;;6.05;2.00;;;30.10;27.80;;;;;;5056448;28;20119;-62
2022/05/22 09:38:41;;;;;;;11.43;4.20;;;29.50;28.50;;;;;;5080407;28;20103;-63
2022/05/22 09:41:40;;;;;;;4.25;2.00;;;28.90;28.80;;;;;;5060294;28;20161;-65
2022/05/22 09:44:14;;;;;;;4.55;1.92;;;28.50;29.20;;;;;;5081377;28;20268;-67
2022/05/22 09:46:43;;;;;;;;;;;27.80;29.60;;;;;;5061583;28;20056;-65
2022/05/22 09:49:11;;;;;;;4.95;2.25;;;27.40;30.00;;;;;;5063071;28;19916;-64
2022/05/22 09:51:55;;;;;;;5.30;2.03;;;27.40;30.20;;;;;;5081165;28;20118;-61
2022/05/22 09:54:43;;;;;;;5.95;2.17;;;27.60;30.30;;;;;;5080000;28;20028;-61
2022/05/22 09:57:15;;;;;;;7.13;2.30;;;27.90;30.30;;;;;;5079848;28;20042;-63
2022/05/22 10:00:16;;;;;;;6.35;2.78;;;28.20;30.10;;;;;;5063314;28;20032;-62
2022/05/22 10:03:00;;;;;;;7.22;2.30;;;28.20;30.90;;;;;;5076186;28;20030;-63
2022/05/22 10:05:40;;;;;;;6.28;2.38;;;28.20;30.00;;;;;;5076542;28;20107;-63
2022/05/22 10:08:23;;;;;;;7.57;2.50;;;27.80;30.10;;;;;;5076149;28;20032;-62
2022/05/22 10:11:04;;;;;;;5.10;2.83;;;27.60;30.60;;;;;;5078424;28;20032;-61
2022/05/22 10:13:39;;;;;;;8.57;3.58;;;27.30;31.00;;;;;;5077524;28;20035;-61
2022/05/22 10:16:25;;;;;;;7.47;2.50;;;27.30;31.30;;;;;;5077414;28;20496;-62
2022/05/22 10:19:08;;;;;;;7.13;2.35;;;27.30;31.30;;;;;;5059193;28;20020;-61
2022/05/22 10:21:52;;;;;;;7.55;4.97;;;27.30;31.20;;;;;;5074640;28;20098;-62
2022/05/22 10:25:07;;;;;;;5.25;2.05;;;27.00;31.00;;;;;;5056666;28;20037;-62
2022/05/22 10:27:45;;;;;;;;;;;26.90;31.40;;;;;;5049935;28;20044;-63
2022/05/22 10:30:40;;;;;;;5.47;2.28;;;26.90;31.60;;;;;;5076692;28;19912;-61
2022/05/22 10:33:14;;;;;;;4.47;2.30;;;26.60;31.60;;;;;;5060266;28;20075;-64
2022/05/22 10:35:47;;;;;;;6.50;2.10;;;26.70;31.80;;;;;;5082471;28;20024;-64
2022/05/22 10:38:20;;;;;;;5.07;2.25;;;26.80;31.70;;;;;;5083647;28;20039;-64
2022/05/22 10:43:40;;;;;;;6.53;2.60;;;26.80;31.40;;;;;;5082059;28;20151;-65
2022/05/22 10:46:06;;;;;;;5.47;2.92;;;26.90;31.40;;;;;;5074760;28;20245;-62
2022/05/22 10:48:34;;;;;;;14.57;10.32;;;26.90;31.20;;;;;;5075656;28;20532;-62
2022/05/22 10:51:08;;;;;;;9.52;2.60;;;26.80;31.20;;;;;;5080042;28;20468;-63
2022/05/22 10:53:50;;;;;;;4.60;2.03;;;26.70;31.40;;;;;;5079750;28;20025;-62
2022/05/22 10:56:26;;;;;;;6.88;2.00;;;26.70;31.10;;;;;;5068504;28;20085;-63
2022/05/22 10:59:02;;;;;;;3.53;1.80;;;26.90;31.00;;;;;;5083227;28;20029;-64
2022/05/22 11:01:34;;;;;;;5.78;1.90;;;26.90;30.80;;;;;;5082851;28;20019;-64
2022/05/22 11:04:19;;;;;;;5.25;1.85;;;26.90;31.00;;;;;;5074913;28;20158;-63
2022/05/22 11:06:58;;;;;;;5.32;1.88;;;26.90;31.20;;;;;;5058661;28;20036;-63
2022/05/22 11:09:29;;;;;;;4.57;2.20;;;27.00;31.10;;;;;;5083017;28;20038;-64
2022/05/22 11:12:10;;;;;;;5.30;1.90;;;26.80;31.20;;;;;;5064747;28;20114;-63
2022/05/22 11:14:36;;;;;;;6.70;2.10;;;26.80;31.30;;;;;;5061516;28;20449;-64
2022/05/22 11:17:13;;;;;;;4.13;1.90;;;27.00;31.10;;;;;;5068784;28;20435;-66
2022/05/22 11:19:41;;;;;;;5.95;2.00;;;27.10;31.30;;;;;;5077185;28;20025;-66
2022/05/22 11:22:31;;;;;;;4.85;2.25;;;27.10;30.70;;;;;;5081537;28;20023;-64
2022/05/22 11:25:23;;;;;;;5.60;2.00;;;27.10;30.60;;;;;;5063632;28;20102;-65
2022/05/22 11:28:11;;;;;;;6.50;2.00;;;27.00;31.10;;;;;;5067311;28;20040;-63
2022/05/22 11:30:46;;;;;;;7.93;1.92;;;27.10;31.20;;;;;;5082850;28;20024;-65
2022/05/22 11:33:56;;;;;;;4.55;1.80;;;27.10;31.40;;;;;;5086752;28;20028;-65
2022/05/22 11:36:47;;;;;;;5.57;2.25;;;26.90;31.40;;;;;;5067316;28;20120;-65
2022/05/22 11:39:28;;;;;;;4.22;1.90;;;26.70;31.80;;;;;;5075110;28;20454;-66
2022/05/22 11:42:11;;;;;;;4.97;2.45;;;26.70;31.80;;;;;;5072101;28;20028;-64
2022/05/22 11:44:53;;;;;;;7.13;2.50;;;26.80;31.90;;;;;;5058508;28;20048;-64
2022/05/22 11:47:44;;;;;;;5.78;2.45;;;26.90;31.60;;;;;;5069383;28;20037;-65
2022/05/22 11:50:29;;;;;;;7.10;2.35;;;26.70;31.50;;;;;;5046038;28;20052;-63
2022/05/22 11:53:09;;;;;;;6.75;2.90;;;26.70;31.70;;;;;;5060781;28;20016;-65
2022/05/22 11:56:19;;;;;;;8.30;2.63;;;26.80;31.70;;;;;;5064909;28;20115;-65
2022/05/22 11:59:26;;;;;;;4.80;1.80;;;26.80;31.30;;;;;;5058568;28;20033;-63
2022/05/22 12:02:08;;;;;;;6.38;2.10;;;27.00;31.20;;;;;;5057437;28;20057;-63
2022/05/22 12:04:43;;;;;;;4.82;2.20;;;26.90;31.40;;;;;;5057558;28;20056;-63
2022/05/22 12:07:09;;;;;;;8.32;2.08;;;27.10;31.80;;;;;;5042100;28;20167;-64
2022/05/22 12:09:47;;;;;;;5.65;2.15;;;27.20;31.10;;;;;;5044015;28;20032;-64
2022/05/22 12:12:31;;;;;;;3.83;1.63;;;27.20;31.10;;;;;;5059010;28;20033;-63
2022/05/22 12:15:35;;;;;;;5.35;1.90;;;27.30;31.30;;;;;;5058758;28;20032;-63
2022/05/22 12:18:28;;;;;;;10.50;2.30;;;27.50;31.30;;;;;;5060150;28;20029;-64
2022/05/22 12:21:15;;;;;;;6.50;2.05;;;27.70;31.60;;;;;;5053453;28;20071;-64
2022/05/22 12:24:16;;;;;;;5.60;2.65;;;27.80;31.10;;;;;;5057157;28;20517;-66
2022/05/22 12:26:43;;;;;;;6.90;2.13;;;27.80;30.90;;;;;;5061563;28;20508;-64
2022/05/22 12:29:25;;;;;;;8.38;4.10;;;28.00;30.80;;;;;;5056711;28;20386;-65
2022/05/22 12:31:57;;;;;;;5.43;2.85;;;27.90;30.60;;;;;;5058235;28;20020;-62
2022/05/22 12:34:44;;;;;;;8.32;2.50;;;27.70;30.70;;;;;;5057904;28;20085;-64
2022/05/22 12:37:19;;;;;;;4.25;2.00;;;27.70;30.70;;;;;;5056704;28;20037;-66
2022/05/22 12:39:55;;;;;;;7.15;1.85;;;27.90;30.30;;;;;;5054924;28;20047;-65
2022/05/22 12:42:31;;;;;;;6.80;2.10;;;27.80;30.30;;;;;;5057222;28;20086;-64
2022/05/22 12:44:57;;;;;;;3.70;1.70;;;27.80;30.00;;;;;;5079479;28;20051;-66
2022/05/22 12:47:34;;;;;;;4.05;2.00;;;27.80;30.20;;;;;;5078410;28;20032;-64
2022/05/22 12:50:00;;;;;;;5.85;1.85;;;28.00;30.00;;;;;;5080244;28;20107;-64
2022/05/22 12:52:30;;;;;;;4.45;2.15;;;28.00;29.50;;;;;;5082579;28;20152;-65
2022/05/22 12:55:09;;;;;;;8.27;1.95;;;27.70;29.60;;;;;;5083350;28;20020;-64
2022/05/22 13:00:38;;;;;;;7.18;2.83;;;27.90;30.00;;;;;;5079444;28;20052;-66
2022/05/22 13:03:25;;;;;;;4.75;1.98;;;28.10;29.90;;;;;;5062451;28;20025;-67
2022/05/22 13:06:08;;;;;;;5.43;2.08;;;28.40;29.70;;;;;;5089353;28;20023;-66
2022/05/22 13:08:41;;;;;;;6.38;2.00;;;28.40;29.50;;;;;;5088364;28;20032;-64
2022/05/22 13:11:17;;;;;;;6.03;1.80;;;28.60;29.50;;;;;;5081429;28;20043;-65
2022/05/22 13:13:52;;;;;;;6.55;2.63;;;28.60;29.30;;;;;;5094851;28;20043;-65
2022/05/22 13:16:32;;;;;;;6.90;3.22;;;28.70;29.20;;;;;;5071846;28;20024;-66
2022/05/22 13:18:58;;;;;;;5.80;2.47;;;28.60;29.30;;;;;;5086320;28;20111;-64
2022/05/22 13:21:37;;;;;;;4.75;2.20;;;28.60;29.30;;;;;;5060957;28;20387;-63
2022/05/22 13:24:21;;;;;;;7.07;2.28;;;28.70;29.30;;;;;;5062337;28;20475;-64
2022/05/22 13:27:06;;;;;;;5.03;2.50;;;28.90;29.10;;;;;;5088301;28;20020;-65
2022/05/22 13:29:51;;;;;;;7.43;2.08;;;29.00;29.10;;;;;;5084521;28;20031;-64
2022/05/22 13:32:35;;;;;;;10.13;4.15;;;28.90;28.90;;;;;;5094145;28;20054;-65
2022/05/22 13:35:13;;;;;;;6.45;2.75;;;29.00;29.00;;;;;;5084938;28;20012;-64